sensor_id;sensor_type;location;lat;lon;timestamp;P1;durP1;ratioP1;P2;durP2;ratioP2
16963;SDS011;8598;50.508;10.436;2022-09-03T00:00:22;2.83;;;2.50;;
16963;SDS011;8598;50.508;10.436;2022-09-03T00:02:55;3.43;;;2.93;;
16963;SDS011;8598;50.508;10.436;2022-09-03T00:05:28;3.67;;;2.80;;
16963;SDS011;8598;50.508;10.436;2022-09-03T00:08:02;2.37;;;2.27;;
16963;SDS011;8598;50.508;10.436;2022-09-03T00:10:36;5.77;;;2.80;;
16963;SDS011;8598;50.508;10.436;2022-09-03T00:13:11;2.77;;;2.53;;
16963;SDS011;8598;50.508;10.436;2022-09-03T00:15:41;3.17;;;2.40;;
16963;SDS011;8598;50.508;10.436;2022-09-03T00:18:11;2.90;;;2.70;;
16963;SDS011;8598;50.508;10.436;2022-09-03T00:20:42;2.60;;;2.40;;
16963;SDS011;8598;50.508;10.436;2022-09-03T00:23:13;2.70;;;2.50;;
16963;SDS011;8598;50.508;10.436;2022-09-03T00:25:46;3.27;;;2.97;;
16963;SDS011;8598;50.508;10.436;2022-09-03T00:28:18;2.67;;;2.47;;
16963;SDS011;8598;50.508;10.436;2022-09-03T00:30:49;2.70;;;2.50;;
16963;SDS011;8598;50.508;10.436;2022-09-03T00:33:22;3.17;;;2.87;;
16963;SDS011;8598;50.508;10.436;2022-09-03T00:35:54;2.60;;;2.30;;
16963;SDS011;8598;50.508;10.436;2022-09-03T00:38:31;2.80;;;2.60;;
16963;SDS011;8598;50.508;10.436;2022-09-03T00:41:01;2.60;;;2.40;;
16963;SDS011;8598;50.508;10.436;2022-09-03T00:43:37;3.00;;;2.70;;
16963;SDS011;8598;50.508;10.436;2022-09-03T00:46:20;2.87;;;2.67;;
16963;SDS011;8598;50.508;10.436;2022-09-03T00:48:59;3.63;;;2.50;;
16963;SDS011;8598;50.508;10.436;2022-09-03T00:51:39;3.47;;;2.63;;
16963;SDS011;8598;50.508;10.436;2022-09-03T00:54:16;2.77;;;2.57;;
16963;SDS011;8598;50.508;10.436;2022-09-03T00:56:50;3.97;;;2.73;;
16963;SDS011;8598;50.508;10.436;2022-09-03T00:59:38;2.87;;;2.67;;
16963;SDS011;8598;50.508;10.436;2022-09-03T01:02:12;2.30;;;2.20;;
16963;SDS011;8598;50.508;10.436;2022-09-03T01:04:50;4.67;;;2.67;;
16963;SDS011;8598;50.508;10.436;2022-09-03T01:07:28;2.60;;;2.40;;
16963;SDS011;8598;50.508;10.436;2022-09-03T01:10:08;2.87;;;2.40;;
16963;SDS011;8598;50.508;10.436;2022-09-03T01:12:45;6.30;;;2.60;;
16963;SDS011;8598;50.508;10.436;2022-09-03T01:15:19;3.47;;;2.53;;
16963;SDS011;8598;50.508;10.436;2022-09-03T01:17:58;2.73;;;2.53;;
16963;SDS011;8598;50.508;10.436;2022-09-03T01:20:40;5.03;;;2.90;;
16963;SDS011;8598;50.508;10.436;2022-09-03T01:23:28;2.60;;;2.40;;
16963;SDS011;8598;50.508;10.436;2022-09-03T01:26:17;2.87;;;2.60;;
16963;SDS011;8598;50.508;10.436;2022-09-03T01:28:58;3.07;;;2.83;;
16963;SDS011;8598;50.508;10.436;2022-09-03T01:31:32;2.60;;;2.40;;
16963;SDS011;8598;50.508;10.436;2022-09-03T01:34:06;3.73;;;3.00;;
16963;SDS011;8598;50.508;10.436;2022-09-03T01:36:44;3.10;;;2.90;;
16963;SDS011;8598;50.508;10.436;2022-09-03T01:39:20;5.30;;;2.40;;
16963;SDS011;8598;50.508;10.436;2022-09-03T01:41:56;4.10;;;2.80;;
16963;SDS011;8598;50.508;10.436;2022-09-03T01:44:48;3.13;;;2.63;;
16963;SDS011;8598;50.508;10.436;2022-09-03T01:47:41;2.87;;;2.57;;
16963;SDS011;8598;50.508;10.436;2022-09-03T01:50:19;5.30;;;3.27;;
16963;SDS011;8598;50.508;10.436;2022-09-03T01:52:54;2.23;;;2.13;;
16963;SDS011;8598;50.508;10.436;2022-09-03T01:55:28;2.67;;;2.47;;
16963;SDS011;8598;50.508;10.436;2022-09-03T01:57:57;2.90;;;2.70;;
16963;SDS011;8598;50.508;10.436;2022-09-03T02:00:31;2.77;;;2.57;;
16963;SDS011;8598;50.508;10.436;2022-09-03T02:03:01;2.87;;;2.60;;
16963;SDS011;8598;50.508;10.436;2022-09-03T02:05:31;3.10;;;2.57;;
16963;SDS011;8598;50.508;10.436;2022-09-03T02:08:00;2.70;;;2.50;;
16963;SDS011;8598;50.508;10.436;2022-09-03T02:10:30;2.63;;;2.40;;
16963;SDS011;8598;50.508;10.436;2022-09-03T02:13:04;3.33;;;2.40;;
16963;SDS011;8598;50.508;10.436;2022-09-03T02:15:35;2.70;;;2.50;;
16963;SDS011;8598;50.508;10.436;2022-09-03T02:18:04;3.10;;;2.80;;
16963;SDS011;8598;50.508;10.436;2022-09-03T02:20:35;3.73;;;2.30;;
16963;SDS011;8598;50.508;10.436;2022-09-03T02:23:03;4.13;;;2.50;;
16963;SDS011;8598;50.508;10.436;2022-09-03T02:25:31;3.47;;;2.30;;
16963;SDS011;8598;50.508;10.436;2022-09-03T02:28:02;2.67;;;2.47;;
16963;SDS011;8598;50.508;10.436;2022-09-03T02:30:31;2.83;;;2.67;;
16963;SDS011;8598;50.508;10.436;2022-09-03T02:32:59;3.60;;;2.60;;
16963;SDS011;8598;50.508;10.436;2022-09-03T02:35:26;5.87;;;2.60;;
16963;SDS011;8598;50.508;10.436;2022-09-03T02:37:53;2.60;;;2.40;;
16963;SDS011;8598;50.508;10.436;2022-09-03T02:40:20;3.50;;;2.80;;
16963;SDS011;8598;50.508;10.436;2022-09-03T02:42:47;2.90;;;2.70;;
16963;SDS011;8598;50.508;10.436;2022-09-03T02:45:19;2.33;;;2.23;;
16963;SDS011;8598;50.508;10.436;2022-09-03T02:47:52;3.43;;;2.73;;
16963;SDS011;8598;50.508;10.436;2022-09-03T02:50:23;3.10;;;2.60;;
16963;SDS011;8598;50.508;10.436;2022-09-03T02:52:50;2.50;;;2.30;;
16963;SDS011;8598;50.508;10.436;2022-09-03T02:55:18;3.93;;;2.60;;
16963;SDS011;8598;50.508;10.436;2022-09-03T02:57:45;3.30;;;2.70;;
16963;SDS011;8598;50.508;10.436;2022-09-03T03:00:12;3.00;;;2.70;;
16963;SDS011;8598;50.508;10.436;2022-09-03T03:02:39;2.53;;;2.37;;
16963;SDS011;8598;50.508;10.436;2022-09-03T03:05:07;3.23;;;2.93;;
16963;SDS011;8598;50.508;10.436;2022-09-03T03:07:39;3.27;;;2.97;;
16963;SDS011;8598;50.508;10.436;2022-09-03T03:10:06;2.97;;;2.77;;
16963;SDS011;8598;50.508;10.436;2022-09-03T03:12:34;2.77;;;2.50;;
16963;SDS011;8598;50.508;10.436;2022-09-03T03:15:02;5.93;;;2.93;;
16963;SDS011;8598;50.508;10.436;2022-09-03T03:17:29;3.03;;;2.83;;
16963;SDS011;8598;50.508;10.436;2022-09-03T03:19:56;3.10;;;2.83;;
16963;SDS011;8598;50.508;10.436;2022-09-03T03:22:22;3.50;;;2.70;;
16963;SDS011;8598;50.508;10.436;2022-09-03T03:24:50;2.90;;;2.70;;
16963;SDS011;8598;50.508;10.436;2022-09-03T03:27:19;4.43;;;2.70;;
16963;SDS011;8598;50.508;10.436;2022-09-03T03:29:46;3.10;;;2.70;;
16963;SDS011;8598;50.508;10.436;2022-09-03T03:32:14;3.23;;;2.93;;
16963;SDS011;8598;50.508;10.436;2022-09-03T03:34:41;2.93;;;2.20;;
16963;SDS011;8598;50.508;10.436;2022-09-03T03:37:07;6.13;;;2.60;;
16963;SDS011;8598;50.508;10.436;2022-09-03T03:39:34;3.07;;;2.70;;
16963;SDS011;8598;50.508;10.436;2022-09-03T03:42:02;2.63;;;2.40;;
16963;SDS011;8598;50.508;10.436;2022-09-03T03:44:29;2.50;;;2.30;;
16963;SDS011;8598;50.508;10.436;2022-09-03T03:46:56;2.87;;;2.63;;
16963;SDS011;8598;50.508;10.436;2022-09-03T03:49:23;2.97;;;2.67;;
16963;SDS011;8598;50.508;10.436;2022-09-03T03:51:50;3.13;;;2.83;;
16963;SDS011;8598;50.508;10.436;2022-09-03T03:54:17;2.97;;;2.77;;
16963;SDS011;8598;50.508;10.436;2022-09-03T03:56:43;2.90;;;2.70;;
16963;SDS011;8598;50.508;10.436;2022-09-03T03:59:11;3.03;;;2.67;;
16963;SDS011;8598;50.508;10.436;2022-09-03T04:01:38;2.87;;;2.57;;
16963;SDS011;8598;50.508;10.436;2022-09-03T04:04:05;2.70;;;2.50;;
16963;SDS011;8598;50.508;10.436;2022-09-03T04:06:32;3.03;;;2.47;;
16963;SDS011;8598;50.508;10.436;2022-09-03T04:08:58;6.27;;;2.50;;
16963;SDS011;8598;50.508;10.436;2022-09-03T04:11:25;2.93;;;2.73;;
16963;SDS011;8598;50.508;10.436;2022-09-03T04:13:52;2.80;;;2.60;;
16963;SDS011;8598;50.508;10.436;2022-09-03T04:16:21;3.47;;;3.10;;
16963;SDS011;8598;50.508;10.436;2022-09-03T04:18:51;4.57;;;3.70;;
16963;SDS011;8598;50.508;10.436;2022-09-03T04:21:19;3.30;;;3.07;;
16963;SDS011;8598;50.508;10.436;2022-09-03T04:23:48;3.47;;;3.17;;
16963;SDS011;8598;50.508;10.436;2022-09-03T04:26:16;3.63;;;3.10;;
16963;SDS011;8598;50.508;10.436;2022-09-03T04:28:44;3.50;;;3.20;;
16963;SDS011;8598;50.508;10.436;2022-09-03T04:31:12;6.00;;;3.37;;
16963;SDS011;8598;50.508;10.436;2022-09-03T04:33:41;3.63;;;3.33;;
16963;SDS011;8598;50.508;10.436;2022-09-03T04:36:09;5.03;;;3.10;;
16963;SDS011;8598;50.508;10.436;2022-09-03T04:38:38;6.30;;;3.33;;
16963;SDS011;8598;50.508;10.436;2022-09-03T04:41:07;2.80;;;2.60;;
16963;SDS011;8598;50.508;10.436;2022-09-03T04:43:35;3.00;;;2.70;;
16963;SDS011;8598;50.508;10.436;2022-09-03T04:46:03;3.47;;;3.17;;
16963;SDS011;8598;50.508;10.436;2022-09-03T04:48:32;5.97;;;3.23;;
16963;SDS011;8598;50.508;10.436;2022-09-03T04:51:02;3.10;;;2.90;;
16963;SDS011;8598;50.508;10.436;2022-09-03T04:53:30;2.80;;;2.60;;
16963;SDS011;8598;50.508;10.436;2022-09-03T04:55:58;3.40;;;3.10;;
16963;SDS011;8598;50.508;10.436;2022-09-03T04:58:25;3.00;;;2.70;;
16963;SDS011;8598;50.508;10.436;2022-09-03T05:00:52;4.23;;;3.03;;
16963;SDS011;8598;50.508;10.436;2022-09-03T05:03:18;3.73;;;2.73;;
16963;SDS011;8598;50.508;10.436;2022-09-03T05:05:50;4.63;;;2.93;;
16963;SDS011;8598;50.508;10.436;2022-09-03T05:08:19;2.90;;;2.70;;
16963;SDS011;8598;50.508;10.436;2022-09-03T05:10:47;3.37;;;3.17;;
16963;SDS011;8598;50.508;10.436;2022-09-03T05:13:13;3.60;;;3.30;;
16963;SDS011;8598;50.508;10.436;2022-09-03T05:15:40;3.83;;;2.90;;
16963;SDS011;8598;50.508;10.436;2022-09-03T05:18:08;3.23;;;3.03;;
16963;SDS011;8598;50.508;10.436;2022-09-03T05:20:34;4.80;;;3.07;;
16963;SDS011;8598;50.508;10.436;2022-09-03T05:23:02;3.00;;;2.80;;
16963;SDS011;8598;50.508;10.436;2022-09-03T05:25:30;2.80;;;2.60;;
16963;SDS011;8598;50.508;10.436;2022-09-03T05:27:57;3.43;;;3.00;;
16963;SDS011;8598;50.508;10.436;2022-09-03T05:30:24;3.33;;;3.03;;
16963;SDS011;8598;50.508;10.436;2022-09-03T05:32:51;2.97;;;2.73;;
16963;SDS011;8598;50.508;10.436;2022-09-03T05:35:18;5.53;;;2.57;;
16963;SDS011;8598;50.508;10.436;2022-09-03T05:37:44;4.50;;;3.50;;
16963;SDS011;8598;50.508;10.436;2022-09-03T05:40:12;3.80;;;3.50;;
16963;SDS011;8598;50.508;10.436;2022-09-03T05:42:40;2.90;;;2.60;;
16963;SDS011;8598;50.508;10.436;2022-09-03T05:45:07;2.73;;;2.47;;
16963;SDS011;8598;50.508;10.436;2022-09-03T05:47:35;2.53;;;2.37;;
16963;SDS011;8598;50.508;10.436;2022-09-03T05:50:04;2.70;;;2.50;;
16963;SDS011;8598;50.508;10.436;2022-09-03T05:52:32;3.80;;;2.50;;
16963;SDS011;8598;50.508;10.436;2022-09-03T05:54:59;2.90;;;2.63;;
16963;SDS011;8598;50.508;10.436;2022-09-03T05:57:26;2.77;;;2.57;;
16963;SDS011;8598;50.508;10.436;2022-09-03T05:59:55;3.83;;;2.63;;
16963;SDS011;8598;50.508;10.436;2022-09-03T06:02:22;3.67;;;3.03;;
16963;SDS011;8598;50.508;10.436;2022-09-03T06:04:49;3.37;;;2.40;;
16963;SDS011;8598;50.508;10.436;2022-09-03T06:07:16;2.50;;;2.13;;
16963;SDS011;8598;50.508;10.436;2022-09-03T06:09:42;2.57;;;2.17;;
16963;SDS011;8598;50.508;10.436;2022-09-03T06:12:09;2.30;;;2.10;;
16963;SDS011;8598;50.508;10.436;2022-09-03T06:14:36;2.40;;;2.20;;
16963;SDS011;8598;50.508;10.436;2022-09-03T06:17:04;2.50;;;2.20;;
16963;SDS011;8598;50.508;10.436;2022-09-03T06:19:35;4.40;;;2.33;;
16963;SDS011;8598;50.508;10.436;2022-09-03T06:22:01;7.63;;;2.23;;
16963;SDS011;8598;50.508;10.436;2022-09-03T06:24:29;3.00;;;2.00;;
16963;SDS011;8598;50.508;10.436;2022-09-03T06:26:56;3.37;;;1.90;;
16963;SDS011;8598;50.508;10.436;2022-09-03T06:29:23;2.50;;;1.63;;
16963;SDS011;8598;50.508;10.436;2022-09-03T06:31:50;4.73;;;1.67;;
16963;SDS011;8598;50.508;10.436;2022-09-03T06:34:19;1.73;;;1.37;;
16963;SDS011;8598;50.508;10.436;2022-09-03T06:36:46;2.73;;;1.30;;
16963;SDS011;8598;50.508;10.436;2022-09-03T06:39:13;1.90;;;1.53;;
16963;SDS011;8598;50.508;10.436;2022-09-03T06:41:40;5.93;;;1.33;;
16963;SDS011;8598;50.508;10.436;2022-09-03T06:44:07;1.50;;;1.20;;
16963;SDS011;8598;50.508;10.436;2022-09-03T06:46:37;2.03;;;1.03;;
16963;SDS011;8598;50.508;10.436;2022-09-03T06:49:06;3.07;;;1.20;;
16963;SDS011;8598;50.508;10.436;2022-09-03T06:51:35;1.17;;;1.07;;
16963;SDS011;8598;50.508;10.436;2022-09-03T06:54:03;1.40;;;1.30;;
16963;SDS011;8598;50.508;10.436;2022-09-03T06:56:31;2.10;;;1.60;;
16963;SDS011;8598;50.508;10.436;2022-09-03T06:58:59;7.50;;;1.70;;
16963;SDS011;8598;50.508;10.436;2022-09-03T07:01:33;1.93;;;1.40;;
16963;SDS011;8598;50.508;10.436;2022-09-03T07:04:04;1.93;;;1.40;;
16963;SDS011;8598;50.508;10.436;2022-09-03T07:06:32;3.03;;;1.60;;
16963;SDS011;8598;50.508;10.436;2022-09-03T07:09:02;3.43;;;1.83;;
16963;SDS011;8598;50.508;10.436;2022-09-03T07:11:29;5.87;;;2.00;;
16963;SDS011;8598;50.508;10.436;2022-09-03T07:13:57;4.73;;;2.50;;
16963;SDS011;8598;50.508;10.436;2022-09-03T07:16:25;4.33;;;2.50;;
16963;SDS011;8598;50.508;10.436;2022-09-03T07:18:53;5.07;;;3.10;;
16963;SDS011;8598;50.508;10.436;2022-09-03T07:21:22;4.93;;;2.57;;
16963;SDS011;8598;50.508;10.436;2022-09-03T07:23:52;5.50;;;2.40;;
16963;SDS011;8598;50.508;10.436;2022-09-03T07:26:20;3.43;;;2.10;;
16963;SDS011;8598;50.508;10.436;2022-09-03T07:28:49;5.47;;;1.87;;
16963;SDS011;8598;50.508;10.436;2022-09-03T07:31:18;3.63;;;1.87;;
16963;SDS011;8598;50.508;10.436;2022-09-03T07:33:50;6.80;;;1.67;;
16963;SDS011;8598;50.508;10.436;2022-09-03T07:36:19;2.07;;;1.40;;
16963;SDS011;8598;50.508;10.436;2022-09-03T07:38:47;4.50;;;1.50;;
16963;SDS011;8598;50.508;10.436;2022-09-03T07:41:16;2.07;;;1.80;;
16963;SDS011;8598;50.508;10.436;2022-09-03T07:43:43;2.70;;;1.57;;
16963;SDS011;8598;50.508;10.436;2022-09-03T07:46:11;3.83;;;1.47;;
16963;SDS011;8598;50.508;10.436;2022-09-03T07:48:38;3.10;;;1.30;;
16963;SDS011;8598;50.508;10.436;2022-09-03T07:51:06;1.87;;;1.30;;
16963;SDS011;8598;50.508;10.436;2022-09-03T07:53:32;2.43;;;1.80;;
16963;SDS011;8598;50.508;10.436;2022-09-03T07:56:01;2.93;;;1.57;;
16963;SDS011;8598;50.508;10.436;2022-09-03T07:58:32;4.00;;;1.70;;
16963;SDS011;8598;50.508;10.436;2022-09-03T08:01:03;1.90;;;1.50;;
16963;SDS011;8598;50.508;10.436;2022-09-03T08:03:32;1.20;;;1.10;;
16963;SDS011;8598;50.508;10.436;2022-09-03T08:05:59;1.40;;;0.97;;
16963;SDS011;8598;50.508;10.436;2022-09-03T08:08:27;1.17;;;1.07;;
16963;SDS011;8598;50.508;10.436;2022-09-03T08:10:54;1.10;;;0.80;;
16963;SDS011;8598;50.508;10.436;2022-09-03T08:13:22;3.87;;;1.00;;
16963;SDS011;8598;50.508;10.436;2022-09-03T08:15:58;4.50;;;0.93;;
16963;SDS011;8598;50.508;10.436;2022-09-03T08:18:25;1.70;;;0.87;;
16963;SDS011;8598;50.508;10.436;2022-09-03T08:21:01;1.53;;;0.90;;
16963;SDS011;8598;50.508;10.436;2022-09-03T08:23:28;1.00;;;0.87;;
16963;SDS011;8598;50.508;10.436;2022-09-03T08:25:57;2.60;;;1.30;;
16963;SDS011;8598;50.508;10.436;2022-09-03T08:28:24;1.83;;;1.20;;
16963;SDS011;8598;50.508;10.436;2022-09-03T08:30:50;1.87;;;1.00;;
16963;SDS011;8598;50.508;10.436;2022-09-03T08:33:19;3.10;;;1.20;;
16963;SDS011;8598;50.508;10.436;2022-09-03T08:36:01;2.73;;;1.00;;
16963;SDS011;8598;50.508;10.436;2022-09-03T08:38:29;2.63;;;1.10;;
16963;SDS011;8598;50.508;10.436;2022-09-03T08:41:01;2.27;;;1.20;;
16963;SDS011;8598;50.508;10.436;2022-09-03T08:43:35;3.47;;;0.90;;
16963;SDS011;8598;50.508;10.436;2022-09-03T08:46:13;1.67;;;0.90;;
16963;SDS011;8598;50.508;10.436;2022-09-03T08:48:41;1.47;;;1.33;;
16963;SDS011;8598;50.508;10.436;2022-09-03T08:51:10;3.53;;;1.50;;
16963;SDS011;8598;50.508;10.436;2022-09-03T08:53:43;2.37;;;1.20;;
16963;SDS011;8598;50.508;10.436;2022-09-03T08:56:13;2.53;;;1.40;;
16963;SDS011;8598;50.508;10.436;2022-09-03T08:58:49;2.40;;;1.40;;
16963;SDS011;8598;50.508;10.436;2022-09-03T09:01:18;1.73;;;1.00;;
16963;SDS011;8598;50.508;10.436;2022-09-03T09:03:59;6.43;;;1.20;;
16963;SDS011;8598;50.508;10.436;2022-09-03T09:06:37;1.43;;;1.17;;
16963;SDS011;8598;50.508;10.436;2022-09-03T09:09:13;2.93;;;1.20;;
16963;SDS011;8598;50.508;10.436;2022-09-03T09:11:52;1.43;;;1.07;;
16963;SDS011;8598;50.508;10.436;2022-09-03T09:14:25;1.13;;;0.93;;
16963;SDS011;8598;50.508;10.436;2022-09-03T09:17:01;3.37;;;1.30;;
16963;SDS011;8598;50.508;10.436;2022-09-03T09:19:44;2.30;;;1.30;;
16963;SDS011;8598;50.508;10.436;2022-09-03T09:22:17;2.77;;;1.20;;
16963;SDS011;8598;50.508;10.436;2022-09-03T09:24:52;3.07;;;1.20;;
16963;SDS011;8598;50.508;10.436;2022-09-03T09:27:22;2.60;;;1.00;;
16963;SDS011;8598;50.508;10.436;2022-09-03T09:29:50;1.37;;;1.00;;
16963;SDS011;8598;50.508;10.436;2022-09-03T09:32:18;1.10;;;1.00;;
16963;SDS011;8598;50.508;10.436;2022-09-03T09:34:47;2.13;;;1.20;;
16963;SDS011;8598;50.508;10.436;2022-09-03T09:37:15;8.03;;;1.00;;
16963;SDS011;8598;50.508;10.436;2022-09-03T09:39:52;1.17;;;0.97;;
16963;SDS011;8598;50.508;10.436;2022-09-03T09:42:21;1.50;;;1.07;;
16963;SDS011;8598;50.508;10.436;2022-09-03T09:44:48;1.63;;;0.97;;
16963;SDS011;8598;50.508;10.436;2022-09-03T09:47:15;4.43;;;1.20;;
16963;SDS011;8598;50.508;10.436;2022-09-03T09:49:51;3.80;;;1.20;;
16963;SDS011;8598;50.508;10.436;2022-09-03T09:52:20;2.00;;;1.00;;
16963;SDS011;8598;50.508;10.436;2022-09-03T09:54:50;3.80;;;1.30;;
16963;SDS011;8598;50.508;10.436;2022-09-03T09:57:20;4.43;;;1.20;;
16963;SDS011;8598;50.508;10.436;2022-09-03T09:59:49;2.50;;;1.00;;
16963;SDS011;8598;50.508;10.436;2022-09-03T10:02:26;3.23;;;1.33;;
16963;SDS011;8598;50.508;10.436;2022-09-03T10:04:56;3.20;;;1.00;;
16963;SDS011;8598;50.508;10.436;2022-09-03T10:07:36;1.80;;;0.93;;
16963;SDS011;8598;50.508;10.436;2022-09-03T10:10:04;1.23;;;1.13;;
16963;SDS011;8598;50.508;10.436;2022-09-03T10:12:34;2.00;;;1.30;;
16963;SDS011;8598;50.508;10.436;2022-09-03T10:15:10;2.13;;;1.10;;
16963;SDS011;8598;50.508;10.436;2022-09-03T10:17:48;1.50;;;1.00;;
16963;SDS011;8598;50.508;10.436;2022-09-03T10:20:25;1.90;;;1.40;;
16963;SDS011;8598;50.508;10.436;2022-09-03T10:23:06;1.40;;;1.20;;
16963;SDS011;8598;50.508;10.436;2022-09-03T10:25:37;2.30;;;1.27;;
16963;SDS011;8598;50.508;10.436;2022-09-03T10:28:16;2.73;;;1.50;;
16963;SDS011;8598;50.508;10.436;2022-09-03T10:30:47;2.37;;;1.00;;
16963;SDS011;8598;50.508;10.436;2022-09-03T10:33:27;1.37;;;1.10;;
16963;SDS011;8598;50.508;10.436;2022-09-03T10:36:03;2.87;;;1.20;;
16963;SDS011;8598;50.508;10.436;2022-09-03T10:38:37;1.67;;;1.20;;
16963;SDS011;8598;50.508;10.436;2022-09-03T10:41:08;2.23;;;1.10;;
16963;SDS011;8598;50.508;10.436;2022-09-03T10:43:50;2.10;;;1.10;;
16963;SDS011;8598;50.508;10.436;2022-09-03T10:46:34;1.40;;;1.00;;
16963;SDS011;8598;50.508;10.436;2022-09-03T10:49:16;1.83;;;1.20;;
16963;SDS011;8598;50.508;10.436;2022-09-03T10:51:51;0.93;;;0.80;;
16963;SDS011;8598;50.508;10.436;2022-09-03T10:54:30;2.17;;;1.10;;
16963;SDS011;8598;50.508;10.436;2022-09-03T10:57:10;4.17;;;2.00;;
16963;SDS011;8598;50.508;10.436;2022-09-03T10:59:47;6.97;;;1.50;;
16963;SDS011;8598;50.508;10.436;2022-09-03T11:02:29;2.23;;;1.30;;
16963;SDS011;8598;50.508;10.436;2022-09-03T11:05:17;2.97;;;0.87;;
16963;SDS011;8598;50.508;10.436;2022-09-03T11:07:53;0.93;;;0.80;;
16963;SDS011;8598;50.508;10.436;2022-09-03T11:10:27;2.60;;;1.00;;
16963;SDS011;8598;50.508;10.436;2022-09-03T11:12:58;3.13;;;1.00;;
16963;SDS011;8598;50.508;10.436;2022-09-03T11:15:30;2.23;;;1.00;;
16963;SDS011;8598;50.508;10.436;2022-09-03T11:18:00;1.20;;;0.80;;
16963;SDS011;8598;50.508;10.436;2022-09-03T11:20:33;1.70;;;1.10;;
16963;SDS011;8598;50.508;10.436;2022-09-03T11:23:02;1.20;;;1.10;;
16963;SDS011;8598;50.508;10.436;2022-09-03T11:25:33;1.57;;;1.20;;
16963;SDS011;8598;50.508;10.436;2022-09-03T11:28:11;2.17;;;1.40;;
16963;SDS011;8598;50.508;10.436;2022-09-03T11:30:48;3.93;;;1.10;;
16963;SDS011;8598;50.508;10.436;2022-09-03T11:33:22;1.30;;;1.20;;
16963;SDS011;8598;50.508;10.436;2022-09-03T11:35:54;1.63;;;1.17;;
16963;SDS011;8598;50.508;10.436;2022-09-03T11:38:26;1.90;;;1.10;;
16963;SDS011;8598;50.508;10.436;2022-09-03T11:40:59;2.90;;;1.30;;
16963;SDS011;8598;50.508;10.436;2022-09-03T11:43:30;3.03;;;1.13;;
16963;SDS011;8598;50.508;10.436;2022-09-03T11:46:01;5.37;;;1.10;;
16963;SDS011;8598;50.508;10.436;2022-09-03T11:48:33;1.07;;;0.97;;
16963;SDS011;8598;50.508;10.436;2022-09-03T11:51:02;4.07;;;1.20;;
16963;SDS011;8598;50.508;10.436;2022-09-03T11:53:34;3.20;;;1.30;;
16963;SDS011;8598;50.508;10.436;2022-09-03T11:56:11;3.73;;;0.90;;
16963;SDS011;8598;50.508;10.436;2022-09-03T11:58:43;3.60;;;1.60;;
16963;SDS011;8598;50.508;10.436;2022-09-03T12:01:11;1.43;;;1.30;;
16963;SDS011;8598;50.508;10.436;2022-09-03T12:03:42;2.27;;;1.27;;
16963;SDS011;8598;50.508;10.436;2022-09-03T12:06:26;4.00;;;1.10;;
16963;SDS011;8598;50.508;10.436;2022-09-03T12:12:05;4.27;;;1.47;;
16963;SDS011;8598;50.508;10.436;2022-09-03T12:14:41;2.20;;;1.50;;
16963;SDS011;8598;50.508;10.436;2022-09-03T12:17:18;2.47;;;1.17;;
16963;SDS011;8598;50.508;10.436;2022-09-03T12:19:54;2.20;;;1.20;;
16963;SDS011;8598;50.508;10.436;2022-09-03T12:22:22;1.53;;;0.97;;
16963;SDS011;8598;50.508;10.436;2022-09-03T12:24:54;3.20;;;1.10;;
16963;SDS011;8598;50.508;10.436;2022-09-03T12:27:22;1.80;;;1.27;;
16963;SDS011;8598;50.508;10.436;2022-09-03T12:29:54;2.60;;;1.23;;
16963;SDS011;8598;50.508;10.436;2022-09-03T12:32:24;1.20;;;1.00;;
16963;SDS011;8598;50.508;10.436;2022-09-03T12:34:52;1.87;;;0.90;;
16963;SDS011;8598;50.508;10.436;2022-09-03T12:37:20;3.17;;;0.90;;
16963;SDS011;8598;50.508;10.436;2022-09-03T12:39:49;1.53;;;0.93;;
16963;SDS011;8598;50.508;10.436;2022-09-03T12:42:20;2.17;;;0.90;;
16963;SDS011;8598;50.508;10.436;2022-09-03T12:44:50;1.90;;;0.87;;
16963;SDS011;8598;50.508;10.436;2022-09-03T12:47:17;1.23;;;1.03;;
16963;SDS011;8598;50.508;10.436;2022-09-03T12:49:46;2.30;;;0.93;;
16963;SDS011;8598;50.508;10.436;2022-09-03T12:52:16;2.07;;;1.07;;
16963;SDS011;8598;50.508;10.436;2022-09-03T12:54:47;2.97;;;0.97;;
16963;SDS011;8598;50.508;10.436;2022-09-03T12:57:21;2.70;;;1.13;;
16963;SDS011;8598;50.508;10.436;2022-09-03T12:59:52;2.60;;;1.10;;
16963;SDS011;8598;50.508;10.436;2022-09-03T13:02:22;2.07;;;1.10;;
16963;SDS011;8598;50.508;10.436;2022-09-03T13:04:53;2.23;;;1.20;;
16963;SDS011;8598;50.508;10.436;2022-09-03T13:07:22;4.40;;;1.20;;
16963;SDS011;8598;50.508;10.436;2022-09-03T13:09:53;4.13;;;1.20;;
16963;SDS011;8598;50.508;10.436;2022-09-03T13:12:29;10.27;;;7.67;;
16963;SDS011;8598;50.508;10.436;2022-09-03T13:15:04;6.07;;;4.30;;
16963;SDS011;8598;50.508;10.436;2022-09-03T13:17:41;7.33;;;1.33;;
16963;SDS011;8598;50.508;10.436;2022-09-03T13:20:20;2.30;;;1.90;;
16963;SDS011;8598;50.508;10.436;2022-09-03T13:23:01;1.63;;;1.17;;
16963;SDS011;8598;50.508;10.436;2022-09-03T13:25:50;2.87;;;1.10;;
16963;SDS011;8598;50.508;10.436;2022-09-03T13:28:30;2.37;;;1.40;;
16963;SDS011;8598;50.508;10.436;2022-09-03T13:31:05;1.93;;;1.50;;
16963;SDS011;8598;50.508;10.436;2022-09-03T13:33:52;5.00;;;1.73;;
16963;SDS011;8598;50.508;10.436;2022-09-03T13:36:23;4.40;;;3.37;;
16963;SDS011;8598;50.508;10.436;2022-09-03T13:38:56;2.20;;;2.00;;
16963;SDS011;8598;50.508;10.436;2022-09-03T13:41:31;1.97;;;1.87;;
16963;SDS011;8598;50.508;10.436;2022-09-03T13:44:05;2.13;;;2.00;;
16963;SDS011;8598;50.508;10.436;2022-09-03T13:46:39;3.37;;;1.90;;
16963;SDS011;8598;50.508;10.436;2022-09-03T13:49:13;2.10;;;2.00;;
16963;SDS011;8598;50.508;10.436;2022-09-03T13:52:04;1.73;;;1.60;;
16963;SDS011;8598;50.508;10.436;2022-09-03T13:54:38;3.40;;;1.50;;
16963;SDS011;8598;50.508;10.436;2022-09-03T13:57:16;4.47;;;1.53;;
16963;SDS011;8598;50.508;10.436;2022-09-03T13:59:57;2.00;;;1.90;;
16963;SDS011;8598;50.508;10.436;2022-09-03T14:02:30;4.90;;;1.97;;
16963;SDS011;8598;50.508;10.436;2022-09-03T14:05:08;4.03;;;1.67;;
16963;SDS011;8598;50.508;10.436;2022-09-03T14:07:43;2.77;;;1.93;;
16963;SDS011;8598;50.508;10.436;2022-09-03T14:10:20;1.60;;;1.50;;
16963;SDS011;8598;50.508;10.436;2022-09-03T14:12:50;2.90;;;1.60;;
16963;SDS011;8598;50.508;10.436;2022-09-03T14:15:29;2.77;;;1.80;;
16963;SDS011;8598;50.508;10.436;2022-09-03T14:18:02;2.03;;;1.93;;
16963;SDS011;8598;50.508;10.436;2022-09-03T14:20:39;2.30;;;1.60;;
16963;SDS011;8598;50.508;10.436;2022-09-03T14:23:09;4.07;;;1.87;;
16963;SDS011;8598;50.508;10.436;2022-09-03T14:25:51;3.10;;;1.73;;
16963;SDS011;8598;50.508;10.436;2022-09-03T14:28:25;2.23;;;2.07;;
16963;SDS011;8598;50.508;10.436;2022-09-03T14:31:00;2.47;;;2.27;;
16963;SDS011;8598;50.508;10.436;2022-09-03T14:33:37;3.03;;;1.77;;
16963;SDS011;8598;50.508;10.436;2022-09-03T14:36:12;4.27;;;2.20;;
16963;SDS011;8598;50.508;10.436;2022-09-03T14:45:12;2.30;;;2.10;;
16963;SDS011;8598;50.508;10.436;2022-09-03T14:48:03;3.03;;;2.73;;
16963;SDS011;8598;50.508;10.436;2022-09-03T14:50:48;4.50;;;3.30;;
16963;SDS011;8598;50.508;10.436;2022-09-03T14:53:41;4.87;;;2.77;;
16963;SDS011;8598;50.508;10.436;2022-09-03T14:56:29;4.47;;;3.17;;
16963;SDS011;8598;50.508;10.436;2022-09-03T14:59:17;5.80;;;3.53;;
16963;SDS011;8598;50.508;10.436;2022-09-03T15:02:04;4.50;;;3.03;;
16963;SDS011;8598;50.508;10.436;2022-09-03T15:04:48;3.73;;;2.93;;
16963;SDS011;8598;50.508;10.436;2022-09-03T15:07:23;6.23;;;2.90;;
16963;SDS011;8598;50.508;10.436;2022-09-03T15:10:01;8.57;;;3.30;;
16963;SDS011;8598;50.508;10.436;2022-09-03T15:12:36;3.10;;;2.50;;
16963;SDS011;8598;50.508;10.436;2022-09-03T15:15:07;4.33;;;2.67;;
16963;SDS011;8598;50.508;10.436;2022-09-03T15:17:43;3.20;;;2.07;;
16963;SDS011;8598;50.508;10.436;2022-09-03T15:20:20;2.47;;;2.27;;
16963;SDS011;8598;50.508;10.436;2022-09-03T15:23:08;3.97;;;2.90;;
16963;SDS011;8598;50.508;10.436;2022-09-03T15:29:02;5.07;;;2.97;;